createdAt,value
2022-09-07T00:00:54.588Z,9.90
2022-09-07T00:20:54.310Z,8.10
2022-09-07T00:40:54.043Z,7.00
2022-09-07T01:00:53.770Z,8.10
2022-09-07T01:20:53.500Z,6.90
2022-09-07T01:40:53.217Z,11.00
2022-09-07T02:00:52.939Z,8.10
2022-09-07T02:20:52.657Z,8.50
2022-09-07T02:40:52.377Z,9.30
2022-09-07T03:00:52.122Z,10.60
2022-09-07T03:20:51.845Z,14.70
2022-09-07T03:40:51.532Z,8.00
2022-09-07T04:00:51.260Z,8.30
2022-09-07T04:20:51.046Z,10.10
2022-09-07T04:40:50.705Z,11.30
2022-09-07T05:00:50.445Z,8.60
2022-09-07T05:20:50.134Z,11.50
2022-09-07T05:40:49.851Z,16.80
2022-09-07T06:00:49.609Z,13.20
2022-09-07T06:20:49.298Z,9.30
2022-09-07T06:40:49.046Z,23.20
2022-09-07T07:00:48.944Z,26.60
2022-09-07T07:33:53.235Z,22.00
2022-09-07T07:53:54.113Z,18.80
2022-09-07T08:13:52.588Z,16.60
2022-09-07T08:33:52.316Z,14.60
2022-09-07T08:53:52.035Z,25.30
2022-09-07T09:13:51.752Z,18.70
2022-09-07T09:33:51.499Z,19.00
2022-09-07T09:53:51.204Z,15.20
2022-09-07T10:13:50.928Z,15.60
2022-09-07T10:54:30.084Z,16.00
2022-09-07T11:14:11.394Z,21.20
2022-09-07T11:53:49.575Z,14.80
2022-09-07T12:13:49.345Z,15.30
2022-09-07T12:33:50.073Z,11.10
2022-09-07T12:53:48.737Z,7.20
2022-09-07T13:14:08.483Z,15.00
2022-09-07T13:33:49.266Z,7.20
2022-09-07T13:53:47.915Z,21.80
2022-09-07T14:13:47.647Z,5.00
2022-09-07T14:33:47.378Z,4.00
2022-09-07T14:53:48.089Z,4.60
2022-09-07T15:13:46.826Z,3.40
2022-09-07T15:33:47.359Z,3.40
2022-09-07T16:13:48.167Z,4.90
2022-09-07T16:33:45.761Z,6.60
2022-09-07T16:53:45.421Z,9.00
2022-09-07T17:13:45.188Z,8.20
2022-09-07T17:33:44.897Z,4.80
2022-09-07T17:53:45.595Z,9.30
2022-09-07T18:13:44.387Z,7.30
2022-09-07T18:33:44.100Z,7.70
2022-09-07T18:53:44.826Z,9.10
2022-09-07T19:13:43.560Z,8.90
2022-09-07T19:33:43.268Z,11.60
2022-09-07T19:53:42.998Z,10.20
2022-09-07T20:13:42.718Z,12.10
2022-09-07T20:33:42.440Z,11.40
2022-09-07T20:53:42.164Z,17.10
2022-09-07T21:13:41.883Z,12.10
2022-09-07T21:33:41.620Z,12.30
2022-09-07T21:53:41.331Z,11.20
2022-09-07T22:13:41.038Z,17.40
2022-09-07T22:33:40.789Z,14.20
2022-09-07T22:53:40.474Z,17.40
2022-09-07T23:13:40.192Z,13.10
2022-09-07T23:33:39.920Z,14.20
2022-09-07T23:53:40.429Z,14.10
